createdAt,value
2019-03-02T00:00:44.752Z,100766.42
2019-03-02T00:03:15.587Z,100762.25
2019-03-02T00:05:45.988Z,100759.75
2019-03-02T00:08:42.839Z,100766.09
2019-03-02T00:11:17.824Z,100767.08
2019-03-02T00:13:46.524Z,100769.57
2019-03-02T00:16:16.408Z,100768.89
2019-03-02T00:18:48.155Z,100765.57
2019-03-02T00:21:31.380Z,100770.88
2019-03-02T00:24:03.483Z,100763.73
2019-03-02T00:26:45.684Z,100762.41
2019-03-02T00:29:13.072Z,100761.27
2019-03-02T00:31:41.759Z,100758.44
2019-03-02T00:34:10.411Z,100753.78
2019-03-02T00:36:39.167Z,100761.10
2019-03-02T00:39:08.789Z,100757.95
2019-03-02T00:41:38.667Z,100758.61
2019-03-02T00:44:07.827Z,100760.78
2019-03-02T00:46:36.452Z,100768.59
2019-03-02T00:49:05.232Z,100763.45
2019-03-02T00:51:33.877Z,100755.78
2019-03-02T00:54:02.636Z,100758.62
2019-03-02T00:56:31.274Z,100760.30
2019-03-02T00:59:00.613Z,100764.92
2019-03-02T01:01:30.577Z,100764.12
2019-03-02T01:03:59.253Z,100756.80
2019-03-02T01:06:27.909Z,100755.78
2019-03-02T01:08:57.490Z,100760.30
2019-03-02T01:11:26.112Z,100761.45
2019-03-02T01:13:56.846Z,100763.10
2019-03-02T01:16:25.271Z,100756.13
2019-03-02T01:18:59.867Z,100758.44
2019-03-02T01:21:28.506Z,100755.12
2019-03-02T01:23:59.731Z,100755.64
2019-03-02T01:26:27.586Z,100757.78
2019-03-02T01:28:56.282Z,100752.95
2019-03-02T01:31:24.941Z,100752.63
2019-03-02T01:33:53.594Z,100753.30
2019-03-02T01:36:22.273Z,100757.29
2019-03-02T01:38:53.989Z,100753.13
2019-03-02T01:41:21.508Z,100753.13
2019-03-02T01:43:50.183Z,100744.16
2019-03-02T01:46:18.821Z,100749.13
2019-03-02T01:48:47.456Z,100739.98
2019-03-02T01:51:16.114Z,100740.14
2019-03-02T01:53:45.711Z,100734.98
2019-03-02T01:56:15.195Z,100735.48
2019-03-02T01:58:43.807Z,100735.28
2019-03-02T02:01:12.462Z,100725.81
2019-03-02T02:03:43.672Z,100729.33
2019-03-02T02:06:11.611Z,100721.52
2019-03-02T02:08:40.246Z,100722.86
2019-03-02T02:11:08.962Z,100724.34
2019-03-02T02:13:38.971Z,100719.55
2019-03-02T02:16:07.947Z,100716.05
2019-03-02T02:18:36.591Z,100713.20
2019-03-02T02:21:05.339Z,100712.05
2019-03-02T02:23:33.983Z,100710.72
2019-03-02T02:26:02.715Z,100708.55
2019-03-02T02:28:32.368Z,100711.39
2019-03-02T02:31:06.047Z,100703.41
2019-03-02T02:33:32.104Z,100704.39
2019-03-02T02:36:00.841Z,100702.56
2019-03-02T02:38:29.459Z,100704.23
2019-03-02T02:40:58.102Z,100701.75
2019-03-02T02:43:26.704Z,100707.37
2019-03-02T02:45:55.331Z,100706.17
2019-03-02T02:48:26.256Z,100711.00
2019-03-02T02:50:54.401Z,100705.34
2019-03-02T02:53:23.063Z,100702.35
2019-03-02T02:55:51.731Z,100712.33
2019-03-02T02:58:20.450Z,100698.39
2019-03-02T03:00:50.013Z,100702.35
2019-03-02T03:03:20.688Z,100702.82
2019-03-02T03:05:54.143Z,100701.52
2019-03-02T03:08:20.395Z,100699.33
2019-03-02T03:10:49.031Z,100682.08
2019-03-02T03:13:17.684Z,100668.30
2019-03-02T03:15:48.404Z,100672.45
2019-03-02T03:18:17.099Z,100674.05
2019-03-02T03:20:48.866Z,100671.38
2019-03-02T03:23:20.073Z,100664.27
2019-03-02T03:25:46.625Z,100655.92
2019-03-02T03:28:15.303Z,100661.25
2019-03-02T03:30:44.098Z,100655.92
2019-03-02T03:33:12.725Z,100657.44
2019-03-02T03:35:41.385Z,100657.95
2019-03-02T03:38:10.030Z,100658.34
2019-03-02T03:40:38.739Z,100660.83
2019-03-02T03:43:07.452Z,100662.66
2019-03-02T03:45:42.271Z,100663.69
2019-03-02T03:48:06.581Z,100678.32
2019-03-02T03:50:35.272Z,100682.45
2019-03-02T03:53:03.986Z,100673.32
2019-03-02T03:55:32.662Z,100680.45
2019-03-02T03:58:02.571Z,100681.78
2019-03-02T04:00:34.203Z,100674.66
2019-03-02T04:03:01.748Z,100676.83
2019-03-02T04:05:30.470Z,100678.95
2019-03-02T04:07:59.109Z,100679.80
2019-03-02T04:10:28.066Z,100681.13
2019-03-02T04:13:03.802Z,100681.97
2019-03-02T04:15:27.528Z,100680.80
2019-03-02T04:17:56.230Z,100686.12
2019-03-02T04:20:31.106Z,100684.31
2019-03-02T04:23:00.581Z,100683.30
2019-03-02T04:25:29.438Z,100683.78
2019-03-02T04:27:58.063Z,100681.95
2019-03-02T04:30:31.139Z,100678.98
2019-03-02T04:32:57.066Z,100680.80
2019-03-02T04:35:25.800Z,100675.80
2019-03-02T04:37:56.499Z,100673.14
2019-03-02T04:40:27.920Z,100676.33
2019-03-02T04:42:55.190Z,100673.98
2019-03-02T04:45:27.930Z,100676.98
2019-03-02T04:47:59.986Z,100671.00
2019-03-02T04:50:28.384Z,100670.66
2019-03-02T04:52:57.164Z,100673.00
2019-03-02T04:55:25.790Z,100671.98
2019-03-02T04:57:54.448Z,100673.48
2019-03-02T05:00:23.130Z,100667.81
2019-03-02T05:02:55.093Z,100660.00
2019-03-02T05:05:22.147Z,100665.97
2019-03-02T05:07:50.764Z,100661.31
2019-03-02T05:10:19.409Z,100661.00
2019-03-02T05:12:49.671Z,100667.32
2019-03-02T05:15:18.531Z,100664.00
2019-03-02T05:17:47.185Z,100660.34
2019-03-02T05:20:15.808Z,100655.53
2019-03-02T05:22:44.494Z,100654.51
2019-03-02T05:25:15.740Z,100653.84
2019-03-02T05:27:43.547Z,100655.86
2019-03-02T05:30:12.299Z,100642.73
2019-03-02T05:32:41.031Z,100640.90
2019-03-02T05:35:11.938Z,100639.08
2019-03-02T05:37:40.712Z,100640.70
2019-03-02T05:40:09.663Z,100638.89
2019-03-02T05:42:38.322Z,100642.40
2019-03-02T05:45:07.170Z,100638.90
2019-03-02T05:47:35.835Z,100635.74
2019-03-02T05:50:05.038Z,100637.22
2019-03-02T05:52:33.703Z,100638.55
2019-03-02T05:55:02.370Z,100630.39
2019-03-02T05:57:31.075Z,100626.23
2019-03-02T06:00:01.817Z,100629.74
2019-03-02T06:02:30.190Z,100628.09
2019-03-02T06:04:58.844Z,100626.94
2019-03-02T06:07:27.574Z,100624.94
2019-03-02T06:09:56.195Z,100622.91
2019-03-02T06:12:24.870Z,100620.40
2019-03-02T06:14:53.524Z,100613.27
2019-03-02T06:17:22.217Z,100615.43
2019-03-02T06:19:50.874Z,100614.13
2019-03-02T06:22:21.148Z,100620.13
2019-03-02T06:24:49.884Z,100619.80
2019-03-02T06:27:18.530Z,100622.13
2019-03-02T06:29:47.167Z,100620.30
2019-03-02T06:32:15.821Z,100622.12
2019-03-02T06:34:44.450Z,100623.29
2019-03-02T06:37:13.101Z,100621.78
2019-03-02T06:39:44.459Z,100618.80
2019-03-02T06:42:12.428Z,100612.14
2019-03-02T06:44:41.053Z,100617.46
2019-03-02T06:47:09.739Z,100620.11
2019-03-02T06:49:38.374Z,100620.78
2019-03-02T06:52:07.056Z,100616.78
2019-03-02T06:54:35.704Z,100612.64
2019-03-02T06:57:04.454Z,100612.30
2019-03-02T06:59:35.871Z,100613.97
2019-03-02T07:02:03.452Z,100613.80
2019-03-02T07:04:32.101Z,100609.50
2019-03-02T07:07:00.833Z,100611.01
2019-03-02T07:09:29.487Z,100610.17
2019-03-02T07:11:58.117Z,100608.17
2019-03-02T07:14:28.818Z,100607.66
2019-03-02T07:16:57.282Z,100601.84
2019-03-02T07:19:29.595Z,100603.31
2019-03-02T07:21:58.254Z,100607.83
2019-03-02T07:24:29.403Z,100601.84
2019-03-02T07:26:57.394Z,100600.53
2019-03-02T07:29:26.019Z,100606.81
2019-03-02T07:31:55.075Z,100606.48
2019-03-02T07:34:23.703Z,100598.78
2019-03-02T07:36:52.334Z,100598.98
2019-03-02T07:39:25.095Z,100600.64
2019-03-02T07:41:57.948Z,100603.64
2019-03-02T07:44:27.261Z,100598.16
2019-03-02T07:47:00.266Z,100593.50
2019-03-02T07:49:29.902Z,100599.80
2019-03-02T07:52:02.874Z,100591.45
2019-03-02T07:54:34.239Z,100592.08
2019-03-02T07:57:20.206Z,100591.75
2019-03-02T08:00:07.403Z,100594.43
2019-03-02T08:02:39.885Z,100599.12
2019-03-02T08:05:14.518Z,100599.41
2019-03-02T08:07:46.055Z,100601.23
2019-03-02T08:10:17.726Z,100594.02
2019-03-02T08:12:51.131Z,100602.34
2019-03-02T08:15:33.993Z,100600.59
2019-03-02T08:18:04.605Z,100606.59
2019-03-02T08:20:43.330Z,100605.57
2019-03-02T08:23:24.248Z,100597.08
2019-03-02T08:25:54.281Z,100602.05
2019-03-02T08:28:50.991Z,100595.08
2019-03-02T08:31:20.907Z,100592.89
2019-03-02T08:33:55.169Z,100590.69
2019-03-02T08:36:24.239Z,100589.37
2019-03-02T08:38:58.270Z,100597.45
2019-03-02T08:41:28.426Z,100595.90
2019-03-02T08:43:57.010Z,100596.55
2019-03-02T08:46:25.655Z,100594.70
2019-03-02T08:48:54.342Z,100594.68
2019-03-02T08:51:23.057Z,100585.02
2019-03-02T08:53:51.754Z,100583.55
2019-03-02T08:56:20.504Z,100582.77
2019-03-02T08:58:49.153Z,100583.75
2019-03-02T09:01:18.736Z,100581.43
2019-03-02T09:03:48.224Z,100578.00
2019-03-02T09:06:16.949Z,100578.76
2019-03-02T09:08:45.627Z,100580.05
2019-03-02T09:11:14.371Z,100581.02
2019-03-02T09:13:43.182Z,100581.45
2019-03-02T09:16:12.081Z,100578.06
2019-03-02T09:18:45.318Z,100576.39
2019-03-02T09:21:12.345Z,100584.17
2019-03-02T09:23:41.722Z,100576.23
2019-03-02T09:26:10.375Z,100579.59
2019-03-02T09:28:39.046Z,100574.77
2019-03-02T09:31:07.854Z,100570.77
2019-03-02T09:33:36.506Z,100573.52
2019-03-02T09:36:05.225Z,100575.41
2019-03-02T09:38:33.974Z,100572.31
2019-03-02T09:41:02.605Z,100574.11
2019-03-02T09:43:31.444Z,100572.97
2019-03-02T09:46:00.280Z,100574.41
2019-03-02T09:48:29.014Z,100573.72
2019-03-02T09:50:57.632Z,100567.87
2019-03-02T09:53:26.277Z,100571.34
2019-03-02T09:55:56.218Z,100575.80
2019-03-02T09:58:25.830Z,100567.22
2019-03-02T10:00:56.813Z,100574.81
2019-03-02T10:03:26.825Z,100570.77
2019-03-02T10:05:55.470Z,100571.22
2019-03-02T10:08:24.243Z,100577.09
2019-03-02T10:10:52.882Z,100571.80
2019-03-02T10:13:21.743Z,100571.27
2019-03-02T10:15:50.496Z,100576.78
2019-03-02T10:18:19.218Z,100579.33
2019-03-02T10:20:47.869Z,100586.20
2019-03-02T10:23:16.734Z,100584.45
2019-03-02T10:25:45.387Z,100581.29
2019-03-02T10:28:14.051Z,100581.10
2019-03-02T10:30:42.767Z,100578.68
2019-03-02T10:33:11.469Z,100579.23
2019-03-02T10:35:40.146Z,100582.80
2019-03-02T10:38:08.905Z,100579.31
2019-03-02T10:40:37.726Z,100578.55
2019-03-02T10:43:07.409Z,100575.23
2019-03-02T10:45:37.829Z,100572.63
2019-03-02T10:48:06.584Z,100570.95
2019-03-02T10:50:35.305Z,100577.24
2019-03-02T10:53:03.945Z,100571.47
2019-03-02T10:55:32.626Z,100566.23
2019-03-02T10:58:02.320Z,100564.98
2019-03-02T11:00:31.724Z,100564.52
2019-03-02T11:03:00.551Z,100564.86
2019-03-02T11:05:52.933Z,100566.80
2019-03-02T11:08:37.479Z,100560.81
2019-03-02T11:11:14.852Z,100559.22
2019-03-02T11:14:21.071Z,100562.99
2019-03-02T11:16:56.845Z,100556.28
2019-03-02T11:20:02.747Z,100555.13
2019-03-02T11:22:49.289Z,100561.39
2019-03-02T11:25:27.020Z,100555.20
2019-03-02T11:28:02.264Z,100551.20
2019-03-02T11:30:37.786Z,100550.05
2019-03-02T11:33:32.323Z,100552.75
2019-03-02T11:36:35.029Z,100548.55
2019-03-02T11:39:29.120Z,100551.79
2019-03-02T11:42:31.805Z,100545.03
2019-03-02T11:45:25.116Z,100548.51
2019-03-02T11:48:13.650Z,100544.95
2019-03-02T11:51:07.575Z,100541.02
2019-03-02T11:54:10.363Z,100543.73
2019-03-02T11:56:56.604Z,100536.63
2019-03-02T11:59:48.322Z,100535.99
2019-03-02T12:02:41.850Z,100538.68
2019-03-02T12:05:47.702Z,100535.40
2019-03-02T12:08:38.431Z,100540.23
2019-03-02T12:11:13.914Z,100533.71
2019-03-02T12:13:51.898Z,100527.28
2019-03-02T12:16:42.415Z,100524.09
2019-03-02T12:19:35.885Z,100521.58
2019-03-02T12:22:22.076Z,100520.52
2019-03-02T12:25:06.613Z,100522.37
2019-03-02T12:28:09.454Z,100511.80
2019-03-02T12:30:45.766Z,100506.52
2019-03-02T12:33:22.120Z,100500.06
2019-03-02T12:35:56.139Z,100499.13
2019-03-02T12:38:33.032Z,100489.62
2019-03-02T12:41:12.220Z,100489.34
2019-03-02T12:44:08.256Z,100471.20
2019-03-02T12:47:01.831Z,100467.11
2019-03-02T12:49:53.717Z,100477.22
2019-03-02T12:52:48.115Z,100474.22
2019-03-02T12:55:40.505Z,100470.92
2019-03-02T12:58:28.161Z,100466.81
2019-03-02T13:01:18.580Z,100462.95
2019-03-02T13:04:05.659Z,100461.39
2019-03-02T13:06:56.881Z,100454.55
2019-03-02T13:09:46.669Z,100453.92
2019-03-02T13:12:42.826Z,100441.15
2019-03-02T13:15:29.570Z,100444.19
2019-03-02T13:18:05.144Z,100440.25
2019-03-02T13:20:59.217Z,100439.41
2019-03-02T13:23:52.723Z,100439.11
2019-03-02T13:26:29.628Z,100435.09
2019-03-02T13:29:02.936Z,100438.25
2019-03-02T13:32:08.667Z,100428.95
2019-03-02T13:34:48.232Z,100427.37
2019-03-02T13:37:28.637Z,100428.36
2019-03-02T13:40:26.377Z,100421.69
2019-03-02T13:43:05.088Z,100419.09
2019-03-02T13:45:51.789Z,100412.60
2019-03-02T13:48:29.747Z,100415.84
2019-03-02T13:51:08.017Z,100411.92
2019-03-02T13:53:58.985Z,100412.27
2019-03-02T13:56:36.519Z,100411.94
2019-03-02T13:59:23.051Z,100405.24
2019-03-02T14:02:02.142Z,100415.91
2019-03-02T14:04:44.890Z,100417.88
2019-03-02T14:07:42.305Z,100416.33
2019-03-02T14:10:30.479Z,100410.72
2019-03-02T14:13:21.422Z,100415.69
2019-03-02T14:16:08.000Z,100417.58
2019-03-02T14:18:43.751Z,100406.96
2019-03-02T14:21:28.856Z,100409.16
2019-03-02T14:24:22.406Z,100411.78
2019-03-02T14:27:01.685Z,100402.27
2019-03-02T14:29:47.163Z,100409.00
2019-03-02T14:32:29.532Z,100404.02
2019-03-02T14:35:05.206Z,100400.14
2019-03-02T14:37:47.865Z,100402.63
2019-03-02T14:40:25.038Z,100399.52
2019-03-02T14:43:20.044Z,100398.38
2019-03-02T14:46:08.627Z,100398.10
2019-03-02T14:48:51.116Z,100396.45
2019-03-02T14:51:47.797Z,100394.99
2019-03-02T14:54:27.311Z,100393.31
2019-03-02T14:57:04.584Z,100383.21
2019-03-02T14:59:46.863Z,100384.16
2019-03-02T15:02:27.647Z,100374.47
2019-03-02T15:05:20.375Z,100382.30
2019-03-02T15:08:04.821Z,100381.71
2019-03-02T15:10:52.470Z,100377.69
2019-03-02T15:13:36.665Z,100373.34
2019-03-02T15:16:23.158Z,100367.88
2019-03-02T15:19:27.147Z,100368.91
2019-03-02T15:22:13.761Z,100363.17
2019-03-02T15:25:26.075Z,100352.12
2019-03-02T15:28:07.778Z,100355.52
2019-03-02T15:30:46.299Z,100344.07
2019-03-02T15:33:25.961Z,100348.01
2019-03-02T15:36:19.689Z,100339.05
2019-03-02T15:39:07.319Z,100341.72
2019-03-02T15:41:51.151Z,100334.78
2019-03-02T15:44:38.805Z,100339.63
2019-03-02T15:47:29.310Z,100338.08
2019-03-02T15:50:13.551Z,100331.90
2019-03-02T15:53:04.764Z,100334.48
2019-03-02T15:55:53.325Z,100334.08
2019-03-02T15:58:31.983Z,100339.55
2019-03-02T16:01:14.152Z,100337.38
2019-03-02T16:04:16.827Z,100333.56
2019-03-02T16:07:19.678Z,100332.22
2019-03-02T16:10:07.228Z,100328.00
2019-03-02T16:12:50.182Z,100329.03
2019-03-02T16:15:45.234Z,100324.78
2019-03-02T16:18:20.913Z,100323.23
2019-03-02T16:20:55.678Z,100319.63
2019-03-02T16:23:38.676Z,100319.83
2019-03-02T16:26:18.218Z,100320.77
2019-03-02T16:29:09.835Z,100317.47
2019-03-02T16:31:49.677Z,100312.70
2019-03-02T16:34:43.980Z,100308.48
2019-03-02T16:37:20.446Z,100307.03
2019-03-02T16:40:05.481Z,100299.14
2019-03-02T16:42:50.953Z,100300.17
2019-03-02T16:45:39.745Z,100308.47
2019-03-02T16:48:30.149Z,100317.56
2019-03-02T16:51:20.611Z,100318.17
2019-03-02T16:54:08.265Z,100311.69
2019-03-02T16:57:07.971Z,100316.72
2019-03-02T17:01:24.832Z,100321.95
2019-03-02T17:04:10.925Z,100321.95
2019-03-02T17:07:01.445Z,100331.33
2019-03-02T17:09:57.882Z,100336.90
2019-03-02T17:12:36.204Z,100334.11
2019-03-02T17:15:18.939Z,100336.78
2019-03-02T17:17:56.459Z,100336.25
2019-03-02T17:20:50.327Z,100341.82
2019-03-02T17:23:42.577Z,100350.89
2019-03-02T17:26:16.463Z,100357.23
2019-03-02T17:28:55.212Z,100366.31
2019-03-02T17:31:29.804Z,100364.77
2019-03-02T17:34:15.939Z,100377.02
2019-03-02T17:37:06.414Z,100380.92
2019-03-02T17:40:05.893Z,100374.73
2019-03-02T17:42:44.850Z,100380.47
2019-03-02T17:45:44.770Z,100378.21
2019-03-02T17:48:35.320Z,100369.52
2019-03-02T17:51:23.064Z,100379.02
2019-03-02T17:54:03.639Z,100378.50
2019-03-02T17:56:52.810Z,100381.86
2019-03-02T17:59:39.777Z,100391.11
2019-03-02T18:02:17.043Z,100391.78
2019-03-02T18:05:07.944Z,100396.00
2019-03-02T18:07:43.288Z,100397.01
2019-03-02T18:10:21.342Z,100409.04
2019-03-02T18:13:02.269Z,100398.92
2019-03-02T18:15:46.741Z,100407.17
2019-03-02T18:18:15.583Z,100400.89
2019-03-02T18:20:44.433Z,100400.01
2019-03-02T18:23:13.136Z,100400.56
2019-03-02T18:25:44.799Z,100409.70
2019-03-02T18:28:14.074Z,100404.31
2019-03-02T18:30:43.721Z,100411.70
2019-03-02T18:33:24.395Z,100412.20
2019-03-02T18:35:53.561Z,100415.88
2019-03-02T18:38:22.269Z,100412.69
2019-03-02T18:40:52.181Z,100414.41
2019-03-02T18:43:21.047Z,100402.63
2019-03-02T18:45:49.808Z,100399.89
2019-03-02T18:48:41.620Z,100402.09
2019-03-02T18:51:33.965Z,100402.52
2019-03-02T18:54:13.635Z,100406.41
2019-03-02T18:56:43.697Z,100415.98
2019-03-02T18:59:12.384Z,100411.83
2019-03-02T19:01:42.280Z,100414.25
2019-03-02T19:04:10.975Z,100417.08
2019-03-02T19:06:39.793Z,100419.48
2019-03-02T19:09:14.629Z,100421.41
2019-03-02T19:11:43.514Z,100419.91
2019-03-02T19:14:12.304Z,100419.20
2019-03-02T19:16:41.206Z,100417.23
2019-03-02T19:19:13.293Z,100415.90
2019-03-02T19:21:42.096Z,100413.66
2019-03-02T19:24:11.207Z,100415.33
2019-03-02T19:26:40.010Z,100416.41
2019-03-02T19:29:10.850Z,100416.67
2019-03-02T19:31:39.708Z,100415.12
2019-03-02T19:34:08.480Z,100407.97
2019-03-02T19:36:37.331Z,100415.96
2019-03-02T19:39:17.159Z,100410.69
2019-03-02T19:41:46.038Z,100411.95
2019-03-02T19:44:15.939Z,100404.31
2019-03-02T19:46:44.751Z,100401.77
2019-03-02T19:49:13.630Z,100399.23
2019-03-02T19:51:43.275Z,100405.51
2019-03-02T19:54:13.364Z,100405.91
2019-03-02T19:56:42.291Z,100401.83
2019-03-02T19:59:11.052Z,100402.06
2019-03-02T20:01:42.429Z,100403.60
2019-03-02T20:04:11.315Z,100415.00
2019-03-02T20:06:40.113Z,100417.87
2019-03-02T20:09:08.927Z,100415.70
2019-03-02T20:11:38.028Z,100409.01
2019-03-02T20:14:07.848Z,100412.89
2019-03-02T20:16:38.693Z,100401.34
2019-03-02T20:19:07.525Z,100397.39
2019-03-02T20:21:36.383Z,100399.09
2019-03-02T20:24:06.436Z,100392.69
2019-03-02T20:26:35.400Z,100399.09
2019-03-02T20:29:04.384Z,100402.67
2019-03-02T20:31:33.313Z,100404.01
2019-03-02T20:34:04.096Z,100402.91
2019-03-02T20:36:32.932Z,100397.83
2019-03-02T20:39:01.707Z,100401.97
2019-03-02T20:41:30.628Z,100409.16
2019-03-02T20:43:59.864Z,100410.82
2019-03-02T20:46:29.480Z,100413.59
2019-03-02T20:49:01.089Z,100409.98
2019-03-02T20:51:29.938Z,100417.61
2019-03-02T20:53:59.161Z,100416.73
2019-03-02T20:56:27.853Z,100421.68
2019-03-02T20:58:57.971Z,100416.91
2019-03-02T21:01:29.185Z,100417.47
2019-03-02T21:03:58.005Z,100427.21
2019-03-02T21:06:30.548Z,100426.33
2019-03-02T21:09:10.616Z,100426.13
2019-03-02T21:11:39.937Z,100425.62
2019-03-02T21:14:09.224Z,100417.87
2019-03-02T21:16:38.177Z,100426.45
2019-03-02T21:19:09.062Z,100430.03
2019-03-02T21:21:37.897Z,100426.89
2019-03-02T21:24:06.699Z,100432.00
2019-03-02T21:26:35.488Z,100432.77
2019-03-02T21:29:04.361Z,100425.95
2019-03-02T21:31:33.095Z,100431.03
2019-03-02T21:34:02.049Z,100430.09
2019-03-02T21:36:31.005Z,100429.47
2019-03-02T21:38:59.839Z,100426.16
2019-03-02T21:41:28.655Z,100417.61
2019-03-02T21:44:00.146Z,100420.28
2019-03-02T21:46:28.912Z,100419.14
2019-03-02T21:48:58.140Z,100416.20
2019-03-02T21:51:26.931Z,100420.21
2019-03-02T21:53:55.840Z,100419.78
2019-03-02T21:56:26.143Z,100420.11
2019-03-02T21:58:55.014Z,100423.22
2019-03-02T22:01:24.011Z,100422.45
2019-03-02T22:03:52.824Z,100414.06
2019-03-02T22:06:23.787Z,100410.19
2019-03-02T22:08:55.064Z,100418.58
2019-03-02T22:11:23.874Z,100414.43
2019-03-02T22:13:53.602Z,100420.74
2019-03-02T22:16:23.365Z,100422.92
2019-03-02T22:18:52.227Z,100425.25
2019-03-02T22:21:21.442Z,100423.28
2019-03-02T22:23:50.191Z,100424.31
2019-03-02T22:26:19.030Z,100423.15
2019-03-02T22:28:49.169Z,100428.49
2019-03-02T22:31:20.711Z,100422.34
2019-03-02T22:33:49.516Z,100428.33
2019-03-02T22:36:18.315Z,100431.80
2019-03-02T22:38:48.408Z,100427.23
2019-03-02T22:41:17.307Z,100427.22
2019-03-02T22:43:46.665Z,100429.70
2019-03-02T22:46:19.256Z,100428.89
2019-03-02T22:48:50.854Z,100430.30
2019-03-02T22:51:29.407Z,100424.82
2019-03-02T22:53:58.142Z,100414.56
2019-03-02T22:56:28.192Z,100414.27
2019-03-02T22:58:56.050Z,100422.14
2019-03-02T23:02:15.638Z,100426.98
2019-03-02T23:04:44.898Z,100423.08
2019-03-02T23:07:14.669Z,100426.39
2019-03-02T23:09:43.881Z,100421.38
2019-03-02T23:12:12.952Z,100420.81
2019-03-02T23:14:41.806Z,100414.63
2019-03-02T23:17:10.686Z,100413.73
2019-03-02T23:19:40.390Z,100416.60
2019-03-02T23:22:09.260Z,100418.27
2019-03-02T23:24:38.904Z,100414.77
2019-03-02T23:27:08.652Z,100421.05
2019-03-02T23:29:37.584Z,100418.97
2019-03-02T23:32:06.525Z,100417.30
2019-03-02T23:34:37.356Z,100413.29
2019-03-02T23:37:05.779Z,100412.33
2019-03-02T23:39:39.012Z,100410.92
2019-03-02T23:42:07.823Z,100407.12
2019-03-02T23:44:36.646Z,100404.01
2019-03-02T23:47:05.469Z,100403.44
2019-03-02T23:49:34.423Z,100398.03
2019-03-02T23:52:03.431Z,100399.23
2019-03-02T23:54:33.578Z,100385.03
2019-03-02T23:57:02.459Z,100385.17
2019-03-02T23:59:31.224Z,100385.50
